Alum Bridge, WV

3:44 PM EDT on July 23, 2016 (GMT -0400)
Quirky Towers, Vadis | | Change Station

Elev 837 ft 39.04 °N, 80.71 °W | Updated 13 seconds ago

Partly Cloudy
Partly Cloudy
97.8 °F
Feels Like 98 °F
N
1.6
Wind Variable Wind from SW
Gusts 4.5 mph

Today
High -- | Low -- °F
--% Chance of Precip.
Yesterday
High -- | Low -- °F
Precip. -- in
Pressure 29.95 in
Visibility 10.0 miles
Clouds Few 4300 ft
Heat Index 98 °F
Dew Point 59 °F
Humidity 28%
Rainfall 0.00 in
Snow Depth Not available.
6:16 AM 8:42 PM
Waning Gibbous, 83% visible
METAR KCKB 231853Z 27007KT 10SM FEW043 33/22 A3000 RMK AO2 SLP142 T03280217
Pressure 29.95 in
Visibility 10.0 miles
Clouds Few 4300 ft
Heat Index 98 °F
Dew Point 59 °F
Humidity 28%
Rainfall 0.00 in
Snow Depth Not available.
6:16 AM 8:42 PM
Waning Gibbous, 83% visible
METAR KCKB 231853Z 27007KT 10SM FEW043 33/22 A3000 RMK AO2 SLP142 T03280217

10-Day Weather Forecast

Almanac

Astronomy

Jul. 23, 2016 Rise Set
Actual Time
Civil Twilight
Nautical Twilight
Astronomical Twilight
Moon
Length of Visible Light
Length of Day
Tomorrow will be .
, % of the Moon is Illuminated

Today's Extremes

State Highs State Lows

Community

WunderPhotos

Upload Photos

1,926,909 photos uploaded!

WunderBlog® & News

Nearby

Air Quality

  Air Quality AQ Index Pollutant
Not available.

Snow Depth

Station Depth Elevation

Earthquake Activity

City Distance Mag. Time & Date
Minimum magnitude displayed is 2.5.

Coastal Water Temperatures

Place Temperature

Stations

Nearby Weather Stations

Station Location Temp. Windchill Dew Point Humidity Wind Precip. Elev Updated Type
                   

Watches & Warnings

There are currently no watches in effect.